sensor_id;sensor_type;location;lat;lon;timestamp;P1;durP1;ratioP1;P2;durP2;ratioP2
59569;SDS011;45393;44.646;10.900;2022-07-24T00:01:06;10.17;;;6.43;;
59569;SDS011;45393;44.646;10.900;2022-07-24T00:03:32;11.00;;;6.50;;
59569;SDS011;45393;44.646;10.900;2022-07-24T00:05:58;10.83;;;6.20;;
59569;SDS011;45393;44.646;10.900;2022-07-24T00:08:24;9.07;;;6.00;;
59569;SDS011;45393;44.646;10.900;2022-07-24T00:10:50;9.53;;;6.67;;
59569;SDS011;45393;44.646;10.900;2022-07-24T00:13:16;10.33;;;6.47;;
59569;SDS011;45393;44.646;10.900;2022-07-24T00:15:42;11.00;;;6.20;;
59569;SDS011;45393;44.646;10.900;2022-07-24T00:18:08;8.13;;;5.97;;
59569;SDS011;45393;44.646;10.900;2022-07-24T00:20:35;9.83;;;6.07;;
59569;SDS011;45393;44.646;10.900;2022-07-24T00:23:01;8.80;;;6.33;;
59569;SDS011;45393;44.646;10.900;2022-07-24T00:25:27;9.73;;;6.13;;
59569;SDS011;45393;44.646;10.900;2022-07-24T00:27:53;10.67;;;6.27;;
59569;SDS011;45393;44.646;10.900;2022-07-24T00:30:19;10.37;;;6.40;;
59569;SDS011;45393;44.646;10.900;2022-07-24T00:32:45;9.60;;;6.27;;
59569;SDS011;45393;44.646;10.900;2022-07-24T00:35:11;8.00;;;6.40;;
59569;SDS011;45393;44.646;10.900;2022-07-24T00:37:38;9.37;;;5.83;;
59569;SDS011;45393;44.646;10.900;2022-07-24T00:40:04;8.23;;;6.00;;
59569;SDS011;45393;44.646;10.900;2022-07-24T00:42:31;10.27;;;6.30;;
59569;SDS011;45393;44.646;10.900;2022-07-24T00:44:57;9.60;;;6.20;;
59569;SDS011;45393;44.646;10.900;2022-07-24T00:47:23;9.40;;;6.10;;
59569;SDS011;45393;44.646;10.900;2022-07-24T00:49:49;8.87;;;5.90;;
59569;SDS011;45393;44.646;10.900;2022-07-24T00:52:15;10.90;;;6.00;;
59569;SDS011;45393;44.646;10.900;2022-07-24T00:54:41;13.33;;;6.43;;
59569;SDS011;45393;44.646;10.900;2022-07-24T00:57:07;15.00;;;6.20;;
59569;SDS011;45393;44.646;10.900;2022-07-24T00:59:33;8.70;;;6.03;;
59569;SDS011;45393;44.646;10.900;2022-07-24T01:02:00;9.13;;;5.80;;
59569;SDS011;45393;44.646;10.900;2022-07-24T01:04:26;8.80;;;6.33;;
59569;SDS011;45393;44.646;10.900;2022-07-24T01:06:52;11.07;;;6.67;;
59569;SDS011;45393;44.646;10.900;2022-07-24T01:09:18;10.70;;;6.00;;
59569;SDS011;45393;44.646;10.900;2022-07-24T01:11:44;9.60;;;6.10;;
59569;SDS011;45393;44.646;10.900;2022-07-24T01:14:11;9.07;;;5.53;;
59569;SDS011;45393;44.646;10.900;2022-07-24T01:16:37;8.20;;;6.23;;
59569;SDS011;45393;44.646;10.900;2022-07-24T01:19:03;8.80;;;5.40;;
59569;SDS011;45393;44.646;10.900;2022-07-24T01:21:29;9.17;;;6.40;;
59569;SDS011;45393;44.646;10.900;2022-07-24T01:23:55;7.97;;;6.10;;
59569;SDS011;45393;44.646;10.900;2022-07-24T01:26:22;8.10;;;5.87;;
59569;SDS011;45393;44.646;10.900;2022-07-24T01:28:48;10.17;;;6.27;;
59569;SDS011;45393;44.646;10.900;2022-07-24T01:31:14;8.80;;;5.53;;
59569;SDS011;45393;44.646;10.900;2022-07-24T01:33:40;8.87;;;6.27;;
59569;SDS011;45393;44.646;10.900;2022-07-24T01:36:06;8.87;;;6.13;;
59569;SDS011;45393;44.646;10.900;2022-07-24T01:38:32;11.43;;;6.20;;
59569;SDS011;45393;44.646;10.900;2022-07-24T01:40:58;8.57;;;5.70;;
59569;SDS011;45393;44.646;10.900;2022-07-24T01:43:24;8.93;;;6.10;;
59569;SDS011;45393;44.646;10.900;2022-07-24T01:45:50;10.10;;;6.43;;
59569;SDS011;45393;44.646;10.900;2022-07-24T01:48:16;9.37;;;6.67;;
59569;SDS011;45393;44.646;10.900;2022-07-24T01:50:42;8.10;;;5.67;;
59569;SDS011;45393;44.646;10.900;2022-07-24T01:53:09;9.97;;;6.20;;
59569;SDS011;45393;44.646;10.900;2022-07-24T01:55:35;10.50;;;6.57;;
59569;SDS011;45393;44.646;10.900;2022-07-24T01:58:01;8.70;;;6.37;;
59569;SDS011;45393;44.646;10.900;2022-07-24T02:00:28;11.13;;;6.63;;
59569;SDS011;45393;44.646;10.900;2022-07-24T02:02:54;12.57;;;6.60;;
59569;SDS011;45393;44.646;10.900;2022-07-24T02:05:20;8.63;;;6.50;;
59569;SDS011;45393;44.646;10.900;2022-07-24T02:07:53;12.80;;;6.30;;
59569;SDS011;45393;44.646;10.900;2022-07-24T02:10:19;12.47;;;6.77;;
59569;SDS011;45393;44.646;10.900;2022-07-24T02:12:45;11.30;;;6.73;;
59569;SDS011;45393;44.646;10.900;2022-07-24T02:15:11;8.70;;;6.43;;
59569;SDS011;45393;44.646;10.900;2022-07-24T02:17:37;10.03;;;6.03;;
59569;SDS011;45393;44.646;10.900;2022-07-24T02:20:04;12.90;;;6.73;;
59569;SDS011;45393;44.646;10.900;2022-07-24T02:22:30;8.77;;;7.20;;
59569;SDS011;45393;44.646;10.900;2022-07-24T02:24:58;9.13;;;6.33;;
59569;SDS011;45393;44.646;10.900;2022-07-24T02:27:25;10.63;;;7.00;;
59569;SDS011;45393;44.646;10.900;2022-07-24T02:29:51;11.17;;;6.80;;
59569;SDS011;45393;44.646;10.900;2022-07-24T02:32:17;9.63;;;6.53;;
59569;SDS011;45393;44.646;10.900;2022-07-24T02:34:43;11.20;;;7.00;;
59569;SDS011;45393;44.646;10.900;2022-07-24T02:37:09;8.37;;;6.70;;
59569;SDS011;45393;44.646;10.900;2022-07-24T02:39:35;12.50;;;6.93;;
59569;SDS011;45393;44.646;10.900;2022-07-24T02:42:01;11.30;;;6.90;;
59569;SDS011;45393;44.646;10.900;2022-07-24T02:44:27;11.60;;;7.33;;
59569;SDS011;45393;44.646;10.900;2022-07-24T02:46:54;12.83;;;7.17;;
59569;SDS011;45393;44.646;10.900;2022-07-24T02:49:20;9.70;;;6.70;;
59569;SDS011;45393;44.646;10.900;2022-07-24T02:51:46;8.67;;;6.30;;
59569;SDS011;45393;44.646;10.900;2022-07-24T02:54:12;8.70;;;6.63;;
59569;SDS011;45393;44.646;10.900;2022-07-24T02:56:38;8.93;;;6.73;;
59569;SDS011;45393;44.646;10.900;2022-07-24T02:59:04;9.37;;;6.03;;
59569;SDS011;45393;44.646;10.900;2022-07-24T03:01:30;11.73;;;6.80;;
59569;SDS011;45393;44.646;10.900;2022-07-24T03:03:56;10.07;;;7.10;;
59569;SDS011;45393;44.646;10.900;2022-07-24T03:06:22;10.60;;;6.90;;
59569;SDS011;45393;44.646;10.900;2022-07-24T03:08:48;11.90;;;7.67;;
59569;SDS011;45393;44.646;10.900;2022-07-24T03:11:15;12.67;;;8.23;;
59569;SDS011;45393;44.646;10.900;2022-07-24T03:13:41;12.07;;;8.07;;
59569;SDS011;45393;44.646;10.900;2022-07-24T03:16:07;10.83;;;7.63;;
59569;SDS011;45393;44.646;10.900;2022-07-24T03:18:33;13.93;;;7.27;;
59569;SDS011;45393;44.646;10.900;2022-07-24T03:20:59;14.63;;;7.27;;
59569;SDS011;45393;44.646;10.900;2022-07-24T03:23:25;12.40;;;7.67;;
59569;SDS011;45393;44.646;10.900;2022-07-24T03:25:51;14.10;;;8.47;;
59569;SDS011;45393;44.646;10.900;2022-07-24T03:28:19;11.27;;;7.30;;
59569;SDS011;45393;44.646;10.900;2022-07-24T03:30:45;12.10;;;7.53;;
59569;SDS011;45393;44.646;10.900;2022-07-24T03:33:11;11.40;;;7.60;;
59569;SDS011;45393;44.646;10.900;2022-07-24T03:35:37;12.30;;;7.17;;
59569;SDS011;45393;44.646;10.900;2022-07-24T03:38:03;11.43;;;7.67;;
59569;SDS011;45393;44.646;10.900;2022-07-24T03:40:29;14.60;;;8.13;;
59569;SDS011;45393;44.646;10.900;2022-07-24T03:42:56;12.30;;;7.33;;
59569;SDS011;45393;44.646;10.900;2022-07-24T03:45:22;10.43;;;7.90;;
59569;SDS011;45393;44.646;10.900;2022-07-24T03:47:48;12.37;;;7.60;;
59569;SDS011;45393;44.646;10.900;2022-07-24T03:50:14;14.37;;;7.63;;
59569;SDS011;45393;44.646;10.900;2022-07-24T03:52:40;10.23;;;7.73;;
59569;SDS011;45393;44.646;10.900;2022-07-24T03:55:06;11.70;;;6.43;;
59569;SDS011;45393;44.646;10.900;2022-07-24T03:57:32;10.00;;;7.00;;
59569;SDS011;45393;44.646;10.900;2022-07-24T03:59:58;11.63;;;7.00;;
59569;SDS011;45393;44.646;10.900;2022-07-24T04:02:24;11.17;;;6.73;;
59569;SDS011;45393;44.646;10.900;2022-07-24T04:04:50;12.17;;;6.30;;
59569;SDS011;45393;44.646;10.900;2022-07-24T04:07:16;11.60;;;6.83;;
59569;SDS011;45393;44.646;10.900;2022-07-24T04:09:42;8.97;;;6.40;;
59569;SDS011;45393;44.646;10.900;2022-07-24T04:12:09;8.97;;;6.17;;
59569;SDS011;45393;44.646;10.900;2022-07-24T04:14:35;8.57;;;6.07;;
59569;SDS011;45393;44.646;10.900;2022-07-24T04:17:01;12.50;;;6.33;;
59569;SDS011;45393;44.646;10.900;2022-07-24T04:19:27;15.50;;;6.67;;
59569;SDS011;45393;44.646;10.900;2022-07-24T04:21:53;9.87;;;6.23;;
59569;SDS011;45393;44.646;10.900;2022-07-24T04:24:19;12.70;;;6.80;;
59569;SDS011;45393;44.646;10.900;2022-07-24T04:26:45;10.73;;;6.03;;
59569;SDS011;45393;44.646;10.900;2022-07-24T04:29:11;11.10;;;6.50;;
59569;SDS011;45393;44.646;10.900;2022-07-24T04:31:37;12.63;;;6.40;;
59569;SDS011;45393;44.646;10.900;2022-07-24T04:34:03;12.03;;;7.00;;
59569;SDS011;45393;44.646;10.900;2022-07-24T04:36:29;14.03;;;6.83;;
59569;SDS011;45393;44.646;10.900;2022-07-24T04:38:56;12.33;;;6.37;;
59569;SDS011;45393;44.646;10.900;2022-07-24T04:41:22;9.43;;;6.57;;
59569;SDS011;45393;44.646;10.900;2022-07-24T04:43:48;8.97;;;6.43;;
59569;SDS011;45393;44.646;10.900;2022-07-24T04:46:15;12.00;;;6.60;;
59569;SDS011;45393;44.646;10.900;2022-07-24T04:48:41;10.37;;;5.50;;
59569;SDS011;45393;44.646;10.900;2022-07-24T04:51:07;9.23;;;6.07;;
59569;SDS011;45393;44.646;10.900;2022-07-24T04:53:33;12.47;;;5.87;;
59569;SDS011;45393;44.646;10.900;2022-07-24T04:55:59;11.60;;;6.40;;
59569;SDS011;45393;44.646;10.900;2022-07-24T04:58:26;10.83;;;5.37;;
59569;SDS011;45393;44.646;10.900;2022-07-24T05:00:52;13.63;;;6.37;;
59569;SDS011;45393;44.646;10.900;2022-07-24T05:03:18;8.83;;;5.77;;
59569;SDS011;45393;44.646;10.900;2022-07-24T05:05:45;12.27;;;6.53;;
59569;SDS011;45393;44.646;10.900;2022-07-24T05:08:11;12.67;;;6.20;;
59569;SDS011;45393;44.646;10.900;2022-07-24T05:10:37;9.20;;;6.37;;
59569;SDS011;45393;44.646;10.900;2022-07-24T05:13:03;13.07;;;6.70;;
59569;SDS011;45393;44.646;10.900;2022-07-24T05:15:29;11.07;;;5.90;;
59569;SDS011;45393;44.646;10.900;2022-07-24T05:17:56;8.97;;;6.13;;
59569;SDS011;45393;44.646;10.900;2022-07-24T05:20:22;6.53;;;5.30;;
59569;SDS011;45393;44.646;10.900;2022-07-24T05:22:48;7.90;;;6.07;;
59569;SDS011;45393;44.646;10.900;2022-07-24T05:25:14;12.23;;;5.83;;
59569;SDS011;45393;44.646;10.900;2022-07-24T05:27:40;12.03;;;5.77;;
59569;SDS011;45393;44.646;10.900;2022-07-24T05:30:07;11.07;;;5.97;;
59569;SDS011;45393;44.646;10.900;2022-07-24T05:32:33;10.37;;;6.77;;
59569;SDS011;45393;44.646;10.900;2022-07-24T05:35:00;7.73;;;5.90;;
59569;SDS011;45393;44.646;10.900;2022-07-24T05:37:26;10.80;;;5.80;;
59569;SDS011;45393;44.646;10.900;2022-07-24T05:39:52;8.23;;;6.03;;
59569;SDS011;45393;44.646;10.900;2022-07-24T05:42:18;9.33;;;5.97;;
59569;SDS011;45393;44.646;10.900;2022-07-24T05:44:44;8.10;;;5.83;;
59569;SDS011;45393;44.646;10.900;2022-07-24T05:47:10;10.87;;;5.87;;
59569;SDS011;45393;44.646;10.900;2022-07-24T05:49:36;10.27;;;5.90;;
59569;SDS011;45393;44.646;10.900;2022-07-24T05:52:02;9.47;;;5.80;;
59569;SDS011;45393;44.646;10.900;2022-07-24T05:54:28;11.90;;;6.27;;
59569;SDS011;45393;44.646;10.900;2022-07-24T05:56:54;11.67;;;6.10;;
59569;SDS011;45393;44.646;10.900;2022-07-24T05:59:20;11.07;;;6.20;;
59569;SDS011;45393;44.646;10.900;2022-07-24T06:01:47;12.40;;;6.43;;
59569;SDS011;45393;44.646;10.900;2022-07-24T06:04:13;9.27;;;6.00;;
59569;SDS011;45393;44.646;10.900;2022-07-24T06:06:39;11.57;;;7.13;;
59569;SDS011;45393;44.646;10.900;2022-07-24T06:09:05;7.93;;;6.40;;
59569;SDS011;45393;44.646;10.900;2022-07-24T06:11:31;15.47;;;6.30;;
59569;SDS011;45393;44.646;10.900;2022-07-24T06:13:57;10.30;;;6.50;;
59569;SDS011;45393;44.646;10.900;2022-07-24T06:16:23;9.87;;;6.40;;
59569;SDS011;45393;44.646;10.900;2022-07-24T06:18:49;12.07;;;6.90;;
59569;SDS011;45393;44.646;10.900;2022-07-24T06:21:15;12.07;;;6.90;;
59569;SDS011;45393;44.646;10.900;2022-07-24T06:23:41;11.13;;;7.10;;
59569;SDS011;45393;44.646;10.900;2022-07-24T06:26:07;12.67;;;7.67;;
59569;SDS011;45393;44.646;10.900;2022-07-24T06:28:34;13.83;;;7.73;;
59569;SDS011;45393;44.646;10.900;2022-07-24T06:31:00;10.90;;;7.27;;
59569;SDS011;45393;44.646;10.900;2022-07-24T06:33:26;12.43;;;7.83;;
59569;SDS011;45393;44.646;10.900;2022-07-24T06:35:52;11.43;;;8.50;;
59569;SDS011;45393;44.646;10.900;2022-07-24T06:38:18;12.60;;;8.90;;
59569;SDS011;45393;44.646;10.900;2022-07-24T06:40:44;15.70;;;9.17;;
59569;SDS011;45393;44.646;10.900;2022-07-24T06:43:10;13.37;;;8.70;;
59569;SDS011;45393;44.646;10.900;2022-07-24T06:45:36;16.20;;;9.37;;
59569;SDS011;45393;44.646;10.900;2022-07-24T06:48:03;14.73;;;9.00;;
59569;SDS011;45393;44.646;10.900;2022-07-24T06:50:29;13.33;;;8.37;;
59569;SDS011;45393;44.646;10.900;2022-07-24T06:52:55;12.97;;;8.90;;
59569;SDS011;45393;44.646;10.900;2022-07-24T06:55:21;11.03;;;9.50;;
59569;SDS011;45393;44.646;10.900;2022-07-24T06:57:47;14.00;;;10.70;;
59569;SDS011;45393;44.646;10.900;2022-07-24T07:00:14;16.80;;;10.63;;
59569;SDS011;45393;44.646;10.900;2022-07-24T07:02:40;16.00;;;10.73;;
59569;SDS011;45393;44.646;10.900;2022-07-24T07:05:07;17.50;;;11.70;;
59569;SDS011;45393;44.646;10.900;2022-07-24T07:07:34;15.80;;;12.30;;
59569;SDS011;45393;44.646;10.900;2022-07-24T07:10:01;18.37;;;11.67;;
59569;SDS011;45393;44.646;10.900;2022-07-24T07:12:27;18.50;;;13.10;;
59569;SDS011;45393;44.646;10.900;2022-07-24T07:14:54;15.90;;;11.87;;
59569;SDS011;45393;44.646;10.900;2022-07-24T07:17:20;16.13;;;12.70;;
59569;SDS011;45393;44.646;10.900;2022-07-24T07:19:46;19.77;;;11.40;;
59569;SDS011;45393;44.646;10.900;2022-07-24T07:22:12;18.70;;;14.30;;
59569;SDS011;45393;44.646;10.900;2022-07-24T07:24:38;13.50;;;11.87;;
59569;SDS011;45393;44.646;10.900;2022-07-24T07:27:04;15.97;;;12.43;;
59569;SDS011;45393;44.646;10.900;2022-07-24T07:29:30;18.07;;;13.73;;
59569;SDS011;45393;44.646;10.900;2022-07-24T07:31:56;19.13;;;12.20;;
59569;SDS011;45393;44.646;10.900;2022-07-24T07:34:22;16.70;;;13.60;;
59569;SDS011;45393;44.646;10.900;2022-07-24T07:36:49;16.87;;;12.00;;
59569;SDS011;45393;44.646;10.900;2022-07-24T07:39:15;20.63;;;13.93;;
59569;SDS011;45393;44.646;10.900;2022-07-24T07:41:41;16.77;;;12.10;;
59569;SDS011;45393;44.646;10.900;2022-07-24T07:44:07;19.00;;;11.70;;
59569;SDS011;45393;44.646;10.900;2022-07-24T07:46:33;15.23;;;10.93;;
59569;SDS011;45393;44.646;10.900;2022-07-24T07:48:59;18.40;;;11.20;;
59569;SDS011;45393;44.646;10.900;2022-07-24T07:51:25;17.93;;;11.80;;
59569;SDS011;45393;44.646;10.900;2022-07-24T07:53:51;12.77;;;11.10;;
59569;SDS011;45393;44.646;10.900;2022-07-24T07:56:17;13.57;;;11.37;;
59569;SDS011;45393;44.646;10.900;2022-07-24T07:58:44;17.30;;;12.63;;
59569;SDS011;45393;44.646;10.900;2022-07-24T08:01:10;15.93;;;12.40;;
59569;SDS011;45393;44.646;10.900;2022-07-24T08:03:36;16.47;;;13.00;;
59569;SDS011;45393;44.646;10.900;2022-07-24T08:06:02;14.43;;;10.40;;
59569;SDS011;45393;44.646;10.900;2022-07-24T08:08:29;16.53;;;11.10;;
59569;SDS011;45393;44.646;10.900;2022-07-24T08:10:56;13.47;;;11.50;;
59569;SDS011;45393;44.646;10.900;2022-07-24T08:13:22;15.00;;;10.63;;
59569;SDS011;45393;44.646;10.900;2022-07-24T08:15:48;15.13;;;11.23;;
59569;SDS011;45393;44.646;10.900;2022-07-24T08:18:14;13.97;;;11.67;;
59569;SDS011;45393;44.646;10.900;2022-07-24T08:20:40;15.17;;;11.87;;
59569;SDS011;45393;44.646;10.900;2022-07-24T08:23:09;17.03;;;13.40;;
59569;SDS011;45393;44.646;10.900;2022-07-24T08:25:35;17.17;;;13.00;;
59569;SDS011;45393;44.646;10.900;2022-07-24T08:28:01;15.13;;;12.00;;
59569;SDS011;45393;44.646;10.900;2022-07-24T08:30:27;15.03;;;11.13;;
59569;SDS011;45393;44.646;10.900;2022-07-24T08:32:53;13.77;;;10.57;;
59569;SDS011;45393;44.646;10.900;2022-07-24T08:35:19;14.83;;;10.90;;
59569;SDS011;45393;44.646;10.900;2022-07-24T08:37:45;14.40;;;10.90;;
59569;SDS011;45393;44.646;10.900;2022-07-24T08:40:12;12.60;;;10.00;;
59569;SDS011;45393;44.646;10.900;2022-07-24T08:42:38;15.80;;;11.73;;
59569;SDS011;45393;44.646;10.900;2022-07-24T08:45:05;14.73;;;10.67;;
59569;SDS011;45393;44.646;10.900;2022-07-24T08:47:32;19.73;;;12.90;;
59569;SDS011;45393;44.646;10.900;2022-07-24T08:49:58;17.57;;;12.83;;
59569;SDS011;45393;44.646;10.900;2022-07-24T08:52:25;17.73;;;11.50;;
59569;SDS011;45393;44.646;10.900;2022-07-24T08:54:52;17.27;;;11.80;;
59569;SDS011;45393;44.646;10.900;2022-07-24T08:57:18;15.73;;;10.70;;
59569;SDS011;45393;44.646;10.900;2022-07-24T08:59:44;16.80;;;12.63;;
59569;SDS011;45393;44.646;10.900;2022-07-24T09:02:11;16.60;;;11.70;;
59569;SDS011;45393;44.646;10.900;2022-07-24T09:04:40;18.97;;;12.67;;
59569;SDS011;45393;44.646;10.900;2022-07-24T09:07:09;12.03;;;10.00;;
59569;SDS011;45393;44.646;10.900;2022-07-24T09:09:36;15.07;;;11.20;;
59569;SDS011;45393;44.646;10.900;2022-07-24T09:12:23;15.10;;;12.30;;
59569;SDS011;45393;44.646;10.900;2022-07-24T09:14:48;13.97;;;12.37;;
59569;SDS011;45393;44.646;10.900;2022-07-24T09:17:17;14.70;;;11.60;;
59569;SDS011;45393;44.646;10.900;2022-07-24T09:19:59;14.13;;;11.60;;
59569;SDS011;45393;44.646;10.900;2022-07-24T09:25:09;13.67;;;10.83;;
59569;SDS011;45393;44.646;10.900;2022-07-24T09:27:35;12.90;;;10.03;;
59569;SDS011;45393;44.646;10.900;2022-07-24T09:30:02;12.83;;;10.10;;
59569;SDS011;45393;44.646;10.900;2022-07-24T09:32:29;14.03;;;8.87;;
59569;SDS011;45393;44.646;10.900;2022-07-24T09:34:55;12.80;;;10.03;;
59569;SDS011;45393;44.646;10.900;2022-07-24T09:37:21;13.83;;;11.13;;
59569;SDS011;45393;44.646;10.900;2022-07-24T09:39:47;15.37;;;10.30;;
59569;SDS011;45393;44.646;10.900;2022-07-24T09:42:13;12.87;;;9.63;;
59569;SDS011;45393;44.646;10.900;2022-07-24T09:44:40;14.97;;;9.50;;
59569;SDS011;45393;44.646;10.900;2022-07-24T09:47:10;11.03;;;8.47;;
59569;SDS011;45393;44.646;10.900;2022-07-24T09:49:37;9.33;;;8.13;;
59569;SDS011;45393;44.646;10.900;2022-07-24T09:54:48;13.13;;;8.47;;
59569;SDS011;45393;44.646;10.900;2022-07-24T09:57:19;12.07;;;8.70;;
59569;SDS011;45393;44.646;10.900;2022-07-24T09:59:56;12.13;;;8.60;;
59569;SDS011;45393;44.646;10.900;2022-07-24T10:02:26;9.23;;;8.17;;
59569;SDS011;45393;44.646;10.900;2022-07-24T10:04:53;10.90;;;8.70;;
59569;SDS011;45393;44.646;10.900;2022-07-24T10:07:20;11.50;;;8.60;;
59569;SDS011;45393;44.646;10.900;2022-07-24T10:09:50;12.60;;;9.10;;
59569;SDS011;45393;44.646;10.900;2022-07-24T10:12:17;12.90;;;9.13;;
59569;SDS011;45393;44.646;10.900;2022-07-24T10:14:44;10.00;;;8.37;;
59569;SDS011;45393;44.646;10.900;2022-07-24T10:17:12;10.77;;;9.17;;
59569;SDS011;45393;44.646;10.900;2022-07-24T10:19:39;13.20;;;9.13;;
59569;SDS011;45393;44.646;10.900;2022-07-24T10:22:10;10.23;;;8.57;;
59569;SDS011;45393;44.646;10.900;2022-07-24T10:27:28;11.37;;;8.07;;
59569;SDS011;45393;44.646;10.900;2022-07-24T10:29:56;10.17;;;9.10;;
59569;SDS011;45393;44.646;10.900;2022-07-24T10:32:23;12.23;;;7.93;;
59569;SDS011;45393;44.646;10.900;2022-07-24T10:34:59;9.70;;;8.27;;
59569;SDS011;45393;44.646;10.900;2022-07-24T10:45:25;12.87;;;8.80;;
59569;SDS011;45393;44.646;10.900;2022-07-24T10:47:54;13.20;;;7.20;;
59569;SDS011;45393;44.646;10.900;2022-07-24T10:50:21;12.00;;;7.53;;
59569;SDS011;45393;44.646;10.900;2022-07-24T10:52:47;8.80;;;7.50;;
59569;SDS011;45393;44.646;10.900;2022-07-24T10:57:50;11.37;;;7.97;;
59569;SDS011;45393;44.646;10.900;2022-07-24T11:00:22;15.83;;;8.57;;
59569;SDS011;45393;44.646;10.900;2022-07-24T11:02:55;10.93;;;7.30;;
59569;SDS011;45393;44.646;10.900;2022-07-24T11:05:23;8.00;;;6.97;;
59569;SDS011;45393;44.646;10.900;2022-07-24T11:18:37;8.43;;;5.90;;
59569;SDS011;45393;44.646;10.900;2022-07-24T11:21:03;11.80;;;6.60;;
59569;SDS011;45393;44.646;10.900;2022-07-24T11:23:29;11.77;;;6.80;;
59569;SDS011;45393;44.646;10.900;2022-07-24T11:28:41;7.80;;;5.90;;
59569;SDS011;45393;44.646;10.900;2022-07-24T11:31:09;7.93;;;6.63;;
59569;SDS011;45393;44.646;10.900;2022-07-24T11:33:35;6.50;;;5.73;;
59569;SDS011;45393;44.646;10.900;2022-07-24T11:36:07;9.13;;;6.50;;
59569;SDS011;45393;44.646;10.900;2022-07-24T11:38:33;8.07;;;6.00;;
59569;SDS011;45393;44.646;10.900;2022-07-24T11:41:05;9.03;;;6.70;;
59569;SDS011;45393;44.646;10.900;2022-07-24T11:43:35;7.27;;;6.10;;
59569;SDS011;45393;44.646;10.900;2022-07-24T11:46:01;6.40;;;5.80;;
59569;SDS011;45393;44.646;10.900;2022-07-24T11:48:27;8.10;;;5.73;;
59569;SDS011;45393;44.646;10.900;2022-07-24T11:51:03;6.93;;;5.73;;
59569;SDS011;45393;44.646;10.900;2022-07-24T11:53:30;6.57;;;5.83;;
59569;SDS011;45393;44.646;10.900;2022-07-24T11:56:05;7.40;;;5.13;;
59569;SDS011;45393;44.646;10.900;2022-07-24T11:58:37;7.30;;;5.77;;
59569;SDS011;45393;44.646;10.900;2022-07-24T12:01:17;8.73;;;5.83;;
59569;SDS011;45393;44.646;10.900;2022-07-24T12:03:54;9.93;;;5.87;;
59569;SDS011;45393;44.646;10.900;2022-07-24T12:06:22;6.77;;;5.97;;
59569;SDS011;45393;44.646;10.900;2022-07-24T12:08:48;7.37;;;5.93;;
59569;SDS011;45393;44.646;10.900;2022-07-24T12:11:21;8.87;;;5.77;;
59569;SDS011;45393;44.646;10.900;2022-07-24T12:13:47;7.47;;;5.67;;
59569;SDS011;45393;44.646;10.900;2022-07-24T12:16:27;8.97;;;5.40;;
59569;SDS011;45393;44.646;10.900;2022-07-24T12:19:15;7.50;;;5.77;;
59569;SDS011;45393;44.646;10.900;2022-07-24T12:21:45;10.97;;;5.80;;
59569;SDS011;45393;44.646;10.900;2022-07-24T12:24:11;7.07;;;5.23;;
59569;SDS011;45393;44.646;10.900;2022-07-24T12:26:59;8.00;;;6.10;;
59569;SDS011;45393;44.646;10.900;2022-07-24T12:29:25;7.27;;;5.50;;
59569;SDS011;45393;44.646;10.900;2022-07-24T12:32:33;6.17;;;5.13;;
59569;SDS011;45393;44.646;10.900;2022-07-24T12:34:41;11.30;;;5.63;;
59569;SDS011;45393;44.646;10.900;2022-07-24T12:37:17;10.77;;;5.50;;
59569;SDS011;45393;44.646;10.900;2022-07-24T12:39:47;8.23;;;5.93;;
59569;SDS011;45393;44.646;10.900;2022-07-24T12:42:13;6.33;;;5.63;;
59569;SDS011;45393;44.646;10.900;2022-07-24T12:44:41;8.67;;;5.57;;
59569;SDS011;45393;44.646;10.900;2022-07-24T12:47:08;5.90;;;5.30;;
59569;SDS011;45393;44.646;10.900;2022-07-24T12:49:44;6.40;;;5.07;;
59569;SDS011;45393;44.646;10.900;2022-07-24T12:52:22;7.70;;;5.27;;
59569;SDS011;45393;44.646;10.900;2022-07-24T12:54:49;8.27;;;5.30;;
59569;SDS011;45393;44.646;10.900;2022-07-24T12:57:16;7.23;;;5.13;;
59569;SDS011;45393;44.646;10.900;2022-07-24T12:59:43;10.10;;;4.73;;
59569;SDS011;45393;44.646;10.900;2022-07-24T13:02:10;7.30;;;4.80;;
59569;SDS011;45393;44.646;10.900;2022-07-24T13:04:40;5.77;;;4.73;;
59569;SDS011;45393;44.646;10.900;2022-07-24T13:07:07;8.83;;;5.57;;
59569;SDS011;45393;44.646;10.900;2022-07-24T13:09:34;6.20;;;4.97;;
59569;SDS011;45393;44.646;10.900;2022-07-24T13:12:00;5.93;;;4.80;;
59569;SDS011;45393;44.646;10.900;2022-07-24T13:14:27;6.80;;;5.27;;
59569;SDS011;45393;44.646;10.900;2022-07-24T13:16:55;5.63;;;4.90;;
59569;SDS011;45393;44.646;10.900;2022-07-24T13:19:26;7.27;;;4.77;;
59569;SDS011;45393;44.646;10.900;2022-07-24T13:21:52;5.35;;;4.93;;
59569;SDS011;45393;44.646;10.900;2022-07-24T13:24:18;11.52;;;4.75;;
59569;SDS011;45393;44.646;10.900;2022-07-24T13:26:44;8.77;;;5.90;;
59569;SDS011;45393;44.646;10.900;2022-07-24T13:29:11;7.30;;;4.95;;
59569;SDS011;45393;44.646;10.900;2022-07-24T13:31:37;8.50;;;5.07;;
59569;SDS011;45393;44.646;10.900;2022-07-24T13:34:03;10.45;;;5.00;;
59569;SDS011;45393;44.646;10.900;2022-07-24T13:36:29;5.90;;;4.60;;
59569;SDS011;45393;44.646;10.900;2022-07-24T13:38:57;6.33;;;4.30;;
59569;SDS011;45393;44.646;10.900;2022-07-24T13:41:23;7.45;;;5.25;;
59569;SDS011;45393;44.646;10.900;2022-07-24T13:43:49;6.97;;;5.00;;
59569;SDS011;45393;44.646;10.900;2022-07-24T13:46:16;11.48;;;5.50;;
59569;SDS011;45393;44.646;10.900;2022-07-24T13:48:43;7.97;;;5.32;;
59569;SDS011;45393;44.646;10.900;2022-07-24T13:51:09;8.82;;;5.28;;
59569;SDS011;45393;44.646;10.900;2022-07-24T13:53:36;7.78;;;5.15;;
59569;SDS011;45393;44.646;10.900;2022-07-24T13:56:05;5.10;;;4.57;;
59569;SDS011;45393;44.646;10.900;2022-07-24T13:58:32;7.35;;;5.43;;
59569;SDS011;45393;44.646;10.900;2022-07-24T14:01:01;7.43;;;5.70;;
59569;SDS011;45393;44.646;10.900;2022-07-24T14:03:27;5.90;;;5.30;;
59569;SDS011;45393;44.646;10.900;2022-07-24T14:05:53;7.22;;;5.20;;
59569;SDS011;45393;44.646;10.900;2022-07-24T14:08:19;10.82;;;5.40;;
59569;SDS011;45393;44.646;10.900;2022-07-24T14:10:45;9.68;;;5.38;;
59569;SDS011;45393;44.646;10.900;2022-07-24T14:13:11;10.23;;;5.60;;
59569;SDS011;45393;44.646;10.900;2022-07-24T14:15:37;6.95;;;5.15;;
59569;SDS011;45393;44.646;10.900;2022-07-24T14:18:03;10.43;;;5.38;;
59569;SDS011;45393;44.646;10.900;2022-07-24T14:20:29;7.90;;;5.47;;
59569;SDS011;45393;44.646;10.900;2022-07-24T14:22:55;8.60;;;5.10;;
59569;SDS011;45393;44.646;10.900;2022-07-24T14:25:22;8.85;;;5.53;;
59569;SDS011;45393;44.646;10.900;2022-07-24T14:27:48;7.97;;;5.68;;
59569;SDS011;45393;44.646;10.900;2022-07-24T14:30:14;6.57;;;5.40;;
59569;SDS011;45393;44.646;10.900;2022-07-24T14:32:40;6.68;;;4.97;;
59569;SDS011;45393;44.646;10.900;2022-07-24T14:35:07;7.20;;;5.20;;
59569;SDS011;45393;44.646;10.900;2022-07-24T14:37:34;7.60;;;5.20;;
59569;SDS011;45393;44.646;10.900;2022-07-24T14:40:00;8.23;;;5.57;;
59569;SDS011;45393;44.646;10.900;2022-07-24T14:42:27;8.85;;;5.50;;
59569;SDS011;45393;44.646;10.900;2022-07-24T14:44:53;9.65;;;5.53;;
59569;SDS011;45393;44.646;10.900;2022-07-24T14:47:19;9.05;;;5.38;;
59569;SDS011;45393;44.646;10.900;2022-07-24T14:49:45;6.47;;;5.45;;
59569;SDS011;45393;44.646;10.900;2022-07-24T14:52:11;6.90;;;5.63;;
59569;SDS011;45393;44.646;10.900;2022-07-24T14:54:38;7.00;;;5.55;;